sensor_id;sensor_type;location;lat;lon;timestamp;temperature;humidity
8481;DHT22;4277;51.354;6.740;2022-08-23T00:01:00;21.50;73.40
8481;DHT22;4277;51.354;6.740;2022-08-23T06:48:47;21.20;89.00
8481;DHT22;4277;51.354;6.740;2022-08-23T07:18:35;20.40;99.50
8481;DHT22;4277;51.354;6.740;2022-08-23T07:21:03;21.50;84.70
8481;DHT22;4277;51.354;6.740;2022-08-23T07:23:30;21.40;84.90
8481;DHT22;4277;51.354;6.740;2022-08-23T07:25:58;21.40;83.20
8481;DHT22;4277;51.354;6.740;2022-08-23T07:28:24;21.50;81.70
8481;DHT22;4277;51.354;6.740;2022-08-23T07:30:50;21.50;83.00
8481;DHT22;4277;51.354;6.740;2022-08-23T07:33:16;21.50;84.60
8481;DHT22;4277;51.354;6.740;2022-08-23T07:35:49;21.50;83.70
8481;DHT22;4277;51.354;6.740;2022-08-23T07:40:41;21.50;78.60
8481;DHT22;4277;51.354;6.740;2022-08-23T07:43:07;21.50;78.20
8481;DHT22;4277;51.354;6.740;2022-08-23T07:45:34;21.50;77.40
8481;DHT22;4277;51.354;6.740;2022-08-23T07:48:00;21.50;76.50
8481;DHT22;4277;51.354;6.740;2022-08-23T07:50:27;21.50;76.20
8481;DHT22;4277;51.354;6.740;2022-08-23T07:52:52;21.50;76.50
8481;DHT22;4277;51.354;6.740;2022-08-23T07:55:18;21.50;76.60
8481;DHT22;4277;51.354;6.740;2022-08-23T07:57:44;21.50;76.80
8481;DHT22;4277;51.354;6.740;2022-08-23T08:00:10;21.60;77.50
8481;DHT22;4277;51.354;6.740;2022-08-23T08:02:35;21.70;75.70
8481;DHT22;4277;51.354;6.740;2022-08-23T08:05:01;21.80;74.70
8481;DHT22;4277;51.354;6.740;2022-08-23T08:07:27;21.80;75.00
8481;DHT22;4277;51.354;6.740;2022-08-23T08:19:42;21.90;74.30
8481;DHT22;4277;51.354;6.740;2022-08-23T08:27:00;22.30;70.30
8481;DHT22;4277;51.354;6.740;2022-08-23T08:29:26;22.30;69.60
8481;DHT22;4277;51.354;6.740;2022-08-23T08:31:52;22.50;60.20
8481;DHT22;4277;51.354;6.740;2022-08-23T08:34:17;22.60;62.10
8481;DHT22;4277;51.354;6.740;2022-08-23T08:36:49;22.60;62.90
8481;DHT22;4277;51.354;6.740;2022-08-23T08:39:21;22.60;63.10
8481;DHT22;4277;51.354;6.740;2022-08-23T08:44:57;23.00;58.80
8481;DHT22;4277;51.354;6.740;2022-08-23T08:47:42;23.10;55.40
8481;DHT22;4277;51.354;6.740;2022-08-23T08:50:25;23.10;55.70
8481;DHT22;4277;51.354;6.740;2022-08-23T08:55:31;23.30;53.90
8481;DHT22;4277;51.354;6.740;2022-08-23T08:57:58;23.30;55.00
8481;DHT22;4277;51.354;6.740;2022-08-23T09:00:32;23.30;53.80
8481;DHT22;4277;51.354;6.740;2022-08-23T09:02:59;23.30;51.20
8481;DHT22;4277;51.354;6.740;2022-08-23T09:05:33;23.40;47.30
8481;DHT22;4277;51.354;6.740;2022-08-23T09:26:25;23.70;95.50
8481;DHT22;4277;51.354;6.740;2022-08-23T09:28:55;24.10;44.10
8481;DHT22;4277;51.354;6.740;2022-08-23T09:31:41;24.20;42.50
8481;DHT22;4277;51.354;6.740;2022-08-23T09:34:08;24.30;38.80
8481;DHT22;4277;51.354;6.740;2022-08-23T09:36:39;24.50;38.70
8481;DHT22;4277;51.354;6.740;2022-08-23T09:39:24;24.50;37.10
8481;DHT22;4277;51.354;6.740;2022-08-23T09:41:50;24.60;37.10
8481;DHT22;4277;51.354;6.740;2022-08-23T09:44:43;24.80;33.10
8481;DHT22;4277;51.354;6.740;2022-08-23T09:47:15;24.70;40.80
8481;DHT22;4277;51.354;6.740;2022-08-23T09:49:43;24.60;32.00
8481;DHT22;4277;51.354;6.740;2022-08-23T09:52:24;24.70;30.40
8481;DHT22;4277;51.354;6.740;2022-08-23T09:55:02;24.80;26.00
8481;DHT22;4277;51.354;6.740;2022-08-23T09:57:30;24.90;25.00
8481;DHT22;4277;51.354;6.740;2022-08-23T10:02:39;24.90;28.20
8481;DHT22;4277;51.354;6.740;2022-08-23T10:05:30;24.90;27.50
8481;DHT22;4277;51.354;6.740;2022-08-23T10:08:01;25.00;28.60
8481;DHT22;4277;51.354;6.740;2022-08-23T10:10:32;25.10;26.20
8481;DHT22;4277;51.354;6.740;2022-08-23T10:12:59;25.10;27.30
8481;DHT22;4277;51.354;6.740;2022-08-23T10:26:32;25.40;26.20
8481;DHT22;4277;51.354;6.740;2022-08-23T10:29:19;25.50;19.30
8481;DHT22;4277;51.354;6.740;2022-08-23T10:40:56;25.80;20.10
8481;DHT22;4277;51.354;6.740;2022-08-23T10:46:23;25.80;18.10
8481;DHT22;4277;51.354;6.740;2022-08-23T10:48:53;25.90;23.60
8481;DHT22;4277;51.354;6.740;2022-08-23T10:53:58;25.90;22.10
8481;DHT22;4277;51.354;6.740;2022-08-23T10:56:27;25.90;20.90
8481;DHT22;4277;51.354;6.740;2022-08-23T10:58:57;26.00;21.10
8481;DHT22;4277;51.354;6.740;2022-08-23T11:09:08;26.80;8.50
8481;DHT22;4277;51.354;6.740;2022-08-23T11:14:45;26.80;7.00
8481;DHT22;4277;51.354;6.740;2022-08-23T11:17:32;26.90;7.30
8481;DHT22;4277;51.354;6.740;2022-08-23T11:20:05;26.90;6.40
8481;DHT22;4277;51.354;6.740;2022-08-23T11:27:51;27.00;3.90
8481;DHT22;4277;51.354;6.740;2022-08-23T11:30:44;27.00;5.40
8481;DHT22;4277;51.354;6.740;2022-08-23T11:35:41;26.90;1.00
8481;DHT22;4277;51.354;6.740;2022-08-23T11:38:09;27.00;6.10
8481;DHT22;4277;51.354;6.740;2022-08-23T11:43:20;27.20;5.00
8481;DHT22;4277;51.354;6.740;2022-08-23T11:45:49;27.30;5.70
8481;DHT22;4277;51.354;6.740;2022-08-23T11:48:36;27.60;1.00
8481;DHT22;4277;51.354;6.740;2022-08-23T11:53:56;27.90;31.70
8481;DHT22;4277;51.354;6.740;2022-08-23T11:59:30;28.10;1.00
8481;DHT22;4277;51.354;6.740;2022-08-23T12:18:34;28.20;1.00
8481;DHT22;4277;51.354;6.740;2022-08-23T12:21:03;28.20;1.00
8481;DHT22;4277;51.354;6.740;2022-08-23T12:23:30;28.30;1.00
8481;DHT22;4277;51.354;6.740;2022-08-23T12:29:06;28.50;1.00
8481;DHT22;4277;51.354;6.740;2022-08-23T12:31:45;28.60;1.00
8481;DHT22;4277;51.354;6.740;2022-08-23T12:34:39;28.60;1.00
8481;DHT22;4277;51.354;6.740;2022-08-23T12:39:51;28.50;1.00
8481;DHT22;4277;51.354;6.740;2022-08-23T12:42:26;28.60;1.00
8481;DHT22;4277;51.354;6.740;2022-08-23T12:45:15;28.50;1.00
8481;DHT22;4277;51.354;6.740;2022-08-23T12:47:43;28.60;1.00
8481;DHT22;4277;51.354;6.740;2022-08-23T12:52:39;28.60;1.00
8481;DHT22;4277;51.354;6.740;2022-08-23T12:55:17;28.80;1.00
8481;DHT22;4277;51.354;6.740;2022-08-23T12:57:51;28.90;1.00
8481;DHT22;4277;51.354;6.740;2022-08-23T13:00:24;29.00;1.00
8481;DHT22;4277;51.354;6.740;2022-08-23T13:03:05;28.90;1.00
8481;DHT22;4277;51.354;6.740;2022-08-23T13:05:54;28.90;1.00
8481;DHT22;4277;51.354;6.740;2022-08-23T13:11:41;29.00;1.00
8481;DHT22;4277;51.354;6.740;2022-08-23T13:14:35;29.00;1.00
8481;DHT22;4277;51.354;6.740;2022-08-23T13:19:53;29.10;1.00
8481;DHT22;4277;51.354;6.740;2022-08-23T13:22:25;29.00;1.00
8481;DHT22;4277;51.354;6.740;2022-08-23T13:25:34;28.80;1.00
8481;DHT22;4277;51.354;6.740;2022-08-23T13:28:07;28.80;1.00
8481;DHT22;4277;51.354;6.740;2022-08-23T13:30:58;28.70;1.00
8481;DHT22;4277;51.354;6.740;2022-08-23T13:33:24;28.80;1.00
8481;DHT22;4277;51.354;6.740;2022-08-23T13:35:51;28.90;1.00
8481;DHT22;4277;51.354;6.740;2022-08-23T13:38:30;29.00;1.00
8481;DHT22;4277;51.354;6.740;2022-08-23T13:41:08;29.10;1.00
8481;DHT22;4277;51.354;6.740;2022-08-23T13:43:39;29.00;1.00
8481;DHT22;4277;51.354;6.740;2022-08-23T13:46:20;29.00;1.00
8481;DHT22;4277;51.354;6.740;2022-08-23T13:51:32;28.90;1.00
8481;DHT22;4277;51.354;6.740;2022-08-23T13:54:04;29.00;1.00
8481;DHT22;4277;51.354;6.740;2022-08-23T13:56:35;29.00;1.00
8481;DHT22;4277;51.354;6.740;2022-08-23T13:59:24;29.20;1.00
8481;DHT22;4277;51.354;6.740;2022-08-23T14:01:52;29.30;1.00
8481;DHT22;4277;51.354;6.740;2022-08-23T14:04:17;29.20;1.00
8481;DHT22;4277;51.354;6.740;2022-08-23T14:06:43;29.10;1.00
8481;DHT22;4277;51.354;6.740;2022-08-23T14:09:09;29.00;1.00
8481;DHT22;4277;51.354;6.740;2022-08-23T14:11:35;29.10;1.00
8481;DHT22;4277;51.354;6.740;2022-08-23T14:14:02;29.10;1.00
8481;DHT22;4277;51.354;6.740;2022-08-23T14:16:30;29.30;1.00
8481;DHT22;4277;51.354;6.740;2022-08-23T14:18:56;29.20;1.00
8481;DHT22;4277;51.354;6.740;2022-08-23T14:21:22;29.20;1.00
8481;DHT22;4277;51.354;6.740;2022-08-23T14:23:48;29.40;1.00
8481;DHT22;4277;51.354;6.740;2022-08-23T14:26:16;29.50;1.00
8481;DHT22;4277;51.354;6.740;2022-08-23T14:28:43;29.50;1.00
8481;DHT22;4277;51.354;6.740;2022-08-23T14:31:09;29.50;1.00
8481;DHT22;4277;51.354;6.740;2022-08-23T14:33:35;29.50;1.00
8481;DHT22;4277;51.354;6.740;2022-08-23T14:36:01;29.50;1.00
8481;DHT22;4277;51.354;6.740;2022-08-23T14:38:26;29.60;1.00
8481;DHT22;4277;51.354;6.740;2022-08-23T14:40:56;29.60;1.00
8481;DHT22;4277;51.354;6.740;2022-08-23T14:43:22;29.70;1.00
8481;DHT22;4277;51.354;6.740;2022-08-23T14:48:15;29.60;1.00
8481;DHT22;4277;51.354;6.740;2022-08-23T14:50:41;29.70;1.00
8481;DHT22;4277;51.354;6.740;2022-08-23T14:53:07;29.80;1.00
8481;DHT22;4277;51.354;6.740;2022-08-23T14:55:33;30.00;1.00
8481;DHT22;4277;51.354;6.740;2022-08-23T14:57:58;30.10;1.00
8481;DHT22;4277;51.354;6.740;2022-08-23T15:00:25;30.20;1.00
8481;DHT22;4277;51.354;6.740;2022-08-23T15:02:51;30.30;1.00
8481;DHT22;4277;51.354;6.740;2022-08-23T15:05:17;30.30;1.00
8481;DHT22;4277;51.354;6.740;2022-08-23T15:07:43;30.30;1.00
8481;DHT22;4277;51.354;6.740;2022-08-23T15:10:10;30.30;1.00
8481;DHT22;4277;51.354;6.740;2022-08-23T15:12:36;30.10;1.00
8481;DHT22;4277;51.354;6.740;2022-08-23T15:15:05;30.10;1.00
8481;DHT22;4277;51.354;6.740;2022-08-23T15:17:35;30.10;1.00
8481;DHT22;4277;51.354;6.740;2022-08-23T15:20:01;30.10;1.00
8481;DHT22;4277;51.354;6.740;2022-08-23T15:22:27;30.10;1.00
8481;DHT22;4277;51.354;6.740;2022-08-23T15:24:52;30.00;1.00
8481;DHT22;4277;51.354;6.740;2022-08-23T15:27:18;29.90;1.00
8481;DHT22;4277;51.354;6.740;2022-08-23T15:29:46;30.00;1.00
8481;DHT22;4277;51.354;6.740;2022-08-23T15:32:12;30.00;1.00
8481;DHT22;4277;51.354;6.740;2022-08-23T15:34:37;30.10;1.00
8481;DHT22;4277;51.354;6.740;2022-08-23T15:37:03;30.10;1.00
8481;DHT22;4277;51.354;6.740;2022-08-23T15:39:28;30.20;1.00
8481;DHT22;4277;51.354;6.740;2022-08-23T15:41:54;30.30;1.00
8481;DHT22;4277;51.354;6.740;2022-08-23T15:44:19;30.40;1.00
8481;DHT22;4277;51.354;6.740;2022-08-23T15:46:46;30.50;1.00
8481;DHT22;4277;51.354;6.740;2022-08-23T15:49:14;30.50;1.00
8481;DHT22;4277;51.354;6.740;2022-08-23T15:51:40;30.50;1.00
8481;DHT22;4277;51.354;6.740;2022-08-23T15:54:06;30.50;1.00
8481;DHT22;4277;51.354;6.740;2022-08-23T15:56:36;30.50;1.00
8481;DHT22;4277;51.354;6.740;2022-08-23T15:59:04;30.50;1.00
8481;DHT22;4277;51.354;6.740;2022-08-23T16:01:30;30.40;1.00
8481;DHT22;4277;51.354;6.740;2022-08-23T16:03:59;30.50;1.00
8481;DHT22;4277;51.354;6.740;2022-08-23T16:06:24;30.50;1.00
8481;DHT22;4277;51.354;6.740;2022-08-23T16:08:51;30.50;1.00
8481;DHT22;4277;51.354;6.740;2022-08-23T16:11:17;30.50;1.00
8481;DHT22;4277;51.354;6.740;2022-08-23T16:13:45;30.70;1.00
8481;DHT22;4277;51.354;6.740;2022-08-23T16:16:23;30.70;1.00
8481;DHT22;4277;51.354;6.740;2022-08-23T16:18:49;30.90;1.00
8481;DHT22;4277;51.354;6.740;2022-08-23T16:21:15;31.00;1.00
8481;DHT22;4277;51.354;6.740;2022-08-23T16:23:42;31.10;1.00
8481;DHT22;4277;51.354;6.740;2022-08-23T16:26:18;31.20;1.00
8481;DHT22;4277;51.354;6.740;2022-08-23T16:31:11;32.00;1.00
8481;DHT22;4277;51.354;6.740;2022-08-23T16:33:37;32.30;1.00
8481;DHT22;4277;51.354;6.740;2022-08-23T16:36:04;32.80;1.00
8481;DHT22;4277;51.354;6.740;2022-08-23T16:38:30;32.80;1.00
8481;DHT22;4277;51.354;6.740;2022-08-23T16:40:56;33.00;1.00
8481;DHT22;4277;51.354;6.740;2022-08-23T16:43:21;33.00;1.00
8481;DHT22;4277;51.354;6.740;2022-08-23T16:45:47;32.70;1.00
8481;DHT22;4277;51.354;6.740;2022-08-23T16:48:13;32.10;1.00
8481;DHT22;4277;51.354;6.740;2022-08-23T16:50:38;31.60;1.00
8481;DHT22;4277;51.354;6.740;2022-08-23T16:53:04;31.10;1.00
8481;DHT22;4277;51.354;6.740;2022-08-23T16:55:30;30.80;1.00
8481;DHT22;4277;51.354;6.740;2022-08-23T16:57:56;30.40;1.00
8481;DHT22;4277;51.354;6.740;2022-08-23T17:00:21;30.20;1.00
8481;DHT22;4277;51.354;6.740;2022-08-23T17:02:47;29.90;1.00
8481;DHT22;4277;51.354;6.740;2022-08-23T17:05:16;29.80;1.00
8481;DHT22;4277;51.354;6.740;2022-08-23T17:07:42;29.70;1.00
8481;DHT22;4277;51.354;6.740;2022-08-23T17:10:10;29.70;1.00
8481;DHT22;4277;51.354;6.740;2022-08-23T17:12:40;29.80;1.00
8481;DHT22;4277;51.354;6.740;2022-08-23T17:15:08;29.70;1.00
8481;DHT22;4277;51.354;6.740;2022-08-23T17:17:34;29.60;1.00
8481;DHT22;4277;51.354;6.740;2022-08-23T17:20:00;29.60;1.00
8481;DHT22;4277;51.354;6.740;2022-08-23T17:22:26;29.50;1.00
8481;DHT22;4277;51.354;6.740;2022-08-23T17:24:52;29.30;1.00
8481;DHT22;4277;51.354;6.740;2022-08-23T17:27:17;29.20;1.00
8481;DHT22;4277;51.354;6.740;2022-08-23T17:29:43;29.20;1.00
8481;DHT22;4277;51.354;6.740;2022-08-23T17:32:08;29.10;1.00
8481;DHT22;4277;51.354;6.740;2022-08-23T17:34:34;29.00;1.00
8481;DHT22;4277;51.354;6.740;2022-08-23T17:37:00;29.00;1.00
8481;DHT22;4277;51.354;6.740;2022-08-23T17:39:28;28.90;1.00
8481;DHT22;4277;51.354;6.740;2022-08-23T17:41:57;28.80;1.00
8481;DHT22;4277;51.354;6.740;2022-08-23T17:44:23;28.70;1.00
8481;DHT22;4277;51.354;6.740;2022-08-23T17:46:49;28.70;1.00
8481;DHT22;4277;51.354;6.740;2022-08-23T17:49:15;28.80;1.00
8481;DHT22;4277;51.354;6.740;2022-08-23T17:51:42;29.00;1.00
8481;DHT22;4277;51.354;6.740;2022-08-23T17:54:08;29.20;1.00
8481;DHT22;4277;51.354;6.740;2022-08-23T17:56:34;29.50;1.00
8481;DHT22;4277;51.354;6.740;2022-08-23T17:59:00;29.70;1.00
8481;DHT22;4277;51.354;6.740;2022-08-23T18:01:26;29.60;1.00
8481;DHT22;4277;51.354;6.740;2022-08-23T18:03:52;29.40;1.00
8481;DHT22;4277;51.354;6.740;2022-08-23T18:06:18;29.10;1.00
8481;DHT22;4277;51.354;6.740;2022-08-23T18:08:45;28.80;1.00
8481;DHT22;4277;51.354;6.740;2022-08-23T18:11:12;28.60;1.00
8481;DHT22;4277;51.354;6.740;2022-08-23T18:13:38;28.30;1.00
8481;DHT22;4277;51.354;6.740;2022-08-23T18:16:04;28.20;1.00
8481;DHT22;4277;51.354;6.740;2022-08-23T18:18:30;28.00;1.00
8481;DHT22;4277;51.354;6.740;2022-08-23T18:20:56;27.90;1.00
8481;DHT22;4277;51.354;6.740;2022-08-23T18:23:37;27.70;1.00
8481;DHT22;4277;51.354;6.740;2022-08-23T18:26:06;27.50;1.00
8481;DHT22;4277;51.354;6.740;2022-08-23T18:28:33;27.50;1.00
8481;DHT22;4277;51.354;6.740;2022-08-23T18:30:59;27.40;1.00
8481;DHT22;4277;51.354;6.740;2022-08-23T18:33:28;27.20;1.00
8481;DHT22;4277;51.354;6.740;2022-08-23T18:35:55;27.10;1.00
8481;DHT22;4277;51.354;6.740;2022-08-23T18:38:21;27.00;1.00
8481;DHT22;4277;51.354;6.740;2022-08-23T18:40:47;26.90;5.90
8481;DHT22;4277;51.354;6.740;2022-08-23T18:43:22;26.70;1.00
8481;DHT22;4277;51.354;6.740;2022-08-23T18:45:51;26.60;1.00
8481;DHT22;4277;51.354;6.740;2022-08-23T18:48:18;26.60;3.70
8481;DHT22;4277;51.354;6.740;2022-08-23T18:50:45;26.50;7.70
8481;DHT22;4277;51.354;6.740;2022-08-23T18:53:11;26.40;10.90
8481;DHT22;4277;51.354;6.740;2022-08-23T18:55:41;26.30;10.90
8481;DHT22;4277;51.354;6.740;2022-08-23T18:58:07;26.10;23.80
8481;DHT22;4277;51.354;6.740;2022-08-23T19:32:16;25.40;9.70
8481;DHT22;4277;51.354;6.740;2022-08-23T19:34:42;25.20;18.80
8481;DHT22;4277;51.354;6.740;2022-08-23T19:37:08;25.10;20.90
8481;DHT22;4277;51.354;6.740;2022-08-23T19:39:35;25.00;22.10
8481;DHT22;4277;51.354;6.740;2022-08-23T19:42:02;24.90;21.60
8481;DHT22;4277;51.354;6.740;2022-08-23T19:44:28;24.90;23.70
8481;DHT22;4277;51.354;6.740;2022-08-23T19:56:46;24.80;30.00
8481;DHT22;4277;51.354;6.740;2022-08-23T19:59:16;24.70;29.60
8481;DHT22;4277;51.354;6.740;2022-08-23T20:04:10;24.60;29.20
8481;DHT22;4277;51.354;6.740;2022-08-23T20:06:36;24.60;33.30
8481;DHT22;4277;51.354;6.740;2022-08-23T20:09:03;24.50;33.00
8481;DHT22;4277;51.354;6.740;2022-08-23T20:11:29;24.50;31.00
8481;DHT22;4277;51.354;6.740;2022-08-23T20:13:56;24.40;32.20
8481;DHT22;4277;51.354;6.740;2022-08-23T20:16:23;24.30;27.60
8481;DHT22;4277;51.354;6.740;2022-08-23T20:18:51;24.20;28.10
8481;DHT22;4277;51.354;6.740;2022-08-23T20:21:17;24.10;27.00
8481;DHT22;4277;51.354;6.740;2022-08-23T20:23:42;24.00;26.50
8481;DHT22;4277;51.354;6.740;2022-08-23T20:26:39;23.90;27.70
8481;DHT22;4277;51.354;6.740;2022-08-23T20:29:07;23.70;30.20
8481;DHT22;4277;51.354;6.740;2022-08-23T20:31:36;23.60;30.20
8481;DHT22;4277;51.354;6.740;2022-08-23T23:40:16;21.90;90.00
8481;DHT22;4277;51.354;6.740;2022-08-23T23:52:27;21.20;97.60
8481;DHT22;4277;51.354;6.740;2022-08-23T23:54:53;21.20;99.90
8481;DHT22;4277;51.354;6.740;2022-08-23T23:57:19;21.20;99.90
